sensor_id;sensor_type;location;lat;lon;timestamp;pressure;altitude;pressure_sealevel;temperature;humidity
61961;BME280;47923;42.506;24.192;2024-02-28T00:00:10;95843.47;;;2.22;87.82
61961;BME280;47923;42.506;24.192;2024-02-28T00:02:36;95827.97;;;2.10;87.68
61961;BME280;47923;42.506;24.192;2024-02-28T00:05:03;95981.03;;;2.97;88.21
61961;BME280;47923;42.506;24.192;2024-02-28T00:07:28;95845.66;;;2.06;88.01
61961;BME280;47923;42.506;24.192;2024-02-28T00:09:55;95737.41;;;1.50;87.94
61961;BME280;47923;42.506;24.192;2024-02-28T00:12:23;95854.31;;;2.12;87.63
61961;BME280;47923;42.506;24.192;2024-02-28T00:14:50;95739.44;;;1.39;87.32
61961;BME280;47923;42.506;24.192;2024-02-28T00:17:16;95901.75;;;2.29;87.52
61961;BME280;47923;42.506;24.192;2024-02-28T00:19:41;95848.53;;;1.77;87.58
61961;BME280;47923;42.506;24.192;2024-02-28T00:22:09;95758.25;;;1.29;87.93
61961;BME280;47923;42.506;24.192;2024-02-28T00:24:34;95977.66;;;2.77;88.16
61961;BME280;47923;42.506;24.192;2024-02-28T00:27:00;95969.47;;;2.74;88.38
61961;BME280;47923;42.506;24.192;2024-02-28T00:29:26;95642.63;;;0.57;87.33
61961;BME280;47923;42.506;24.192;2024-02-28T00:31:51;95819.03;;;1.74;87.13
61961;BME280;47923;42.506;24.192;2024-02-28T00:34:17;95757.56;;;1.37;87.62
61961;BME280;47923;42.506;24.192;2024-02-28T00:36:42;95620.84;;;0.54;87.25
61961;BME280;47923;42.506;24.192;2024-02-28T00:39:09;95972.03;;;2.93;87.89
61961;BME280;47923;42.506;24.192;2024-02-28T00:41:35;95717.31;;;1.12;88.75
61961;BME280;47923;42.506;24.192;2024-02-28T00:44:02;95651.38;;;0.57;89.28
61961;BME280;47923;42.506;24.192;2024-02-28T00:46:27;95651.69;;;0.55;90.04
61961;BME280;47923;42.506;24.192;2024-02-28T00:48:53;95835.00;;;1.74;91.18
61961;BME280;47923;42.506;24.192;2024-02-28T00:51:18;95964.81;;;2.66;92.08
61961;BME280;47923;42.506;24.192;2024-02-28T00:53:44;95759.22;;;1.20;91.46
61961;BME280;47923;42.506;24.192;2024-02-28T00:56:09;95820.25;;;1.49;91.26
61961;BME280;47923;42.506;24.192;2024-02-28T00:58:34;95763.69;;;1.05;91.51
61961;BME280;47923;42.506;24.192;2024-02-28T01:01:00;95609.38;;;-0.16;91.13
61961;BME280;47923;42.506;24.192;2024-02-28T01:03:25;95698.72;;;0.36;90.95
61961;BME280;47923;42.506;24.192;2024-02-28T01:05:51;96001.59;;;2.36;91.54
61961;BME280;47923;42.506;24.192;2024-02-28T01:08:17;95788.28;;;0.97;91.29
61961;BME280;47923;42.506;24.192;2024-02-28T01:10:43;95986.09;;;2.38;90.85
61961;BME280;47923;42.506;24.192;2024-02-28T01:13:10;95781.31;;;1.01;90.48
61961;BME280;47923;42.506;24.192;2024-02-28T01:15:35;95607.16;;;-0.28;90.47
61961;BME280;47923;42.506;24.192;2024-02-28T01:18:01;95701.41;;;0.55;90.45
61961;BME280;47923;42.506;24.192;2024-02-28T01:20:26;95876.25;;;1.76;90.11
61961;BME280;47923;42.506;24.192;2024-02-28T01:22:52;95968.81;;;2.36;89.85
61961;BME280;47923;42.506;24.192;2024-02-28T01:25:17;95968.91;;;2.31;89.42
61961;BME280;47923;42.506;24.192;2024-02-28T01:27:43;95593.66;;;-0.32;89.58
61961;BME280;47923;42.506;24.192;2024-02-28T01:30:09;95883.31;;;1.67;90.23
61961;BME280;47923;42.506;24.192;2024-02-28T01:32:35;95855.22;;;1.42;89.70
61961;BME280;47923;42.506;24.192;2024-02-28T01:35:02;95931.44;;;1.89;89.85
61961;BME280;47923;42.506;24.192;2024-02-28T01:37:28;95816.69;;;1.02;89.60
61961;BME280;47923;42.506;24.192;2024-02-28T01:39:54;95993.22;;;2.10;89.40
61961;BME280;47923;42.506;24.192;2024-02-28T01:42:19;95880.53;;;1.39;89.51
61961;BME280;47923;42.506;24.192;2024-02-28T01:44:47;95968.19;;;1.92;89.02
61961;BME280;47923;42.506;24.192;2024-02-28T01:47:14;95772.91;;;0.75;88.97
61961;BME280;47923;42.506;24.192;2024-02-28T01:49:41;95854.88;;;1.11;88.64
61961;BME280;47923;42.506;24.192;2024-02-28T01:52:08;95914.16;;;1.54;88.65
61961;BME280;47923;42.506;24.192;2024-02-28T01:54:34;95837.63;;;0.90;89.28
61961;BME280;47923;42.506;24.192;2024-02-28T01:57:00;95776.63;;;0.55;89.29
61961;BME280;47923;42.506;24.192;2024-02-28T01:59:27;95788.13;;;0.51;89.08
61961;BME280;47923;42.506;24.192;2024-02-28T02:01:54;95746.81;;;0.40;88.89
61961;BME280;47923;42.506;24.192;2024-02-28T02:04:20;95769.69;;;0.60;88.86
61961;BME280;47923;42.506;24.192;2024-02-28T02:06:46;95755.50;;;0.45;88.72
61961;BME280;47923;42.506;24.192;2024-02-28T02:09:13;95746.50;;;0.41;88.53
61961;BME280;47923;42.506;24.192;2024-02-28T02:11:39;95627.72;;;-0.39;88.64
61961;BME280;47923;42.506;24.192;2024-02-28T02:14:05;95995.25;;;2.00;89.00
61961;BME280;47923;42.506;24.192;2024-02-28T02:16:30;95803.31;;;0.69;89.81
61961;BME280;47923;42.506;24.192;2024-02-28T02:18:56;95903.84;;;1.10;90.14
61961;BME280;47923;42.506;24.192;2024-02-28T02:21:30;95792.53;;;0.37;90.21
61961;BME280;47923;42.506;24.192;2024-02-28T02:23:56;95988.78;;;1.68;90.43
61961;BME280;47923;42.506;24.192;2024-02-28T02:26:21;95799.66;;;0.22;90.56
61961;BME280;47923;42.506;24.192;2024-02-28T02:28:47;95995.00;;;1.63;90.63
61961;BME280;47923;42.506;24.192;2024-02-28T02:31:13;96018.06;;;1.68;90.90
61961;BME280;47923;42.506;24.192;2024-02-28T02:33:39;95815.13;;;0.39;90.01
61961;BME280;47923;42.506;24.192;2024-02-28T02:36:04;95832.25;;;0.28;89.79
61961;BME280;47923;42.506;24.192;2024-02-28T02:38:30;95759.47;;;-0.19;89.86
61961;BME280;47923;42.506;24.192;2024-02-28T02:40:56;95752.31;;;-0.23;89.90
61961;BME280;47923;42.506;24.192;2024-02-28T02:43:21;96038.81;;;1.52;90.19
61961;BME280;47923;42.506;24.192;2024-02-28T02:45:46;96028.69;;;1.54;90.73
61961;BME280;47923;42.506;24.192;2024-02-28T02:48:12;95975.34;;;1.17;89.98
61961;BME280;47923;42.506;24.192;2024-02-28T02:50:37;95822.38;;;0.10;90.52
61961;BME280;47923;42.506;24.192;2024-02-28T02:53:03;96039.38;;;1.49;90.26
61961;BME280;47923;42.506;24.192;2024-02-28T02:55:29;95888.09;;;0.52;90.26
61961;BME280;47923;42.506;24.192;2024-02-28T02:57:56;95747.19;;;-0.39;89.69
61961;BME280;47923;42.506;24.192;2024-02-28T03:00:21;95697.22;;;-0.61;89.66
61961;BME280;47923;42.506;24.192;2024-02-28T03:02:48;95573.28;;;-1.61;89.32
61961;BME280;47923;42.506;24.192;2024-02-28T03:05:13;95928.50;;;0.73;89.36
61961;BME280;47923;42.506;24.192;2024-02-28T03:07:39;95930.97;;;0.69;89.71
61961;BME280;47923;42.506;24.192;2024-02-28T03:10:05;95797.38;;;-0.13;89.61
61961;BME280;47923;42.506;24.192;2024-02-28T03:12:32;95861.44;;;0.33;89.61
61961;BME280;47923;42.506;24.192;2024-02-28T03:14:58;95894.06;;;0.39;89.19
61961;BME280;47923;42.506;24.192;2024-02-28T03:17:23;95802.94;;;-0.15;89.13
61961;BME280;47923;42.506;24.192;2024-02-28T03:19:49;96023.69;;;1.24;89.09
61961;BME280;47923;42.506;24.192;2024-02-28T03:22:14;95919.53;;;0.45;89.63
61961;BME280;47923;42.506;24.192;2024-02-28T03:24:40;96020.84;;;1.20;89.42
61961;BME280;47923;42.506;24.192;2024-02-28T03:27:06;95919.19;;;0.51;89.56
61961;BME280;47923;42.506;24.192;2024-02-28T03:29:31;95869.25;;;0.24;89.67
61961;BME280;47923;42.506;24.192;2024-02-28T03:31:58;96014.13;;;1.23;89.47
61961;BME280;47923;42.506;24.192;2024-02-28T03:34:23;96029.31;;;1.22;89.35
61961;BME280;47923;42.506;24.192;2024-02-28T03:36:49;96014.44;;;1.21;89.74
61961;BME280;47923;42.506;24.192;2024-02-28T03:39:14;95909.00;;;0.35;88.90
61961;BME280;47923;42.506;24.192;2024-02-28T03:41:39;95750.28;;;-0.56;88.37
61961;BME280;47923;42.506;24.192;2024-02-28T03:44:05;95866.22;;;0.07;88.04
61961;BME280;47923;42.506;24.192;2024-02-28T03:46:30;95819.56;;;-0.28;88.88
61961;BME280;47923;42.506;24.192;2024-02-28T03:48:56;95846.91;;;0.02;88.94
61961;BME280;47923;42.506;24.192;2024-02-28T03:51:22;96025.66;;;1.18;89.12
61961;BME280;47923;42.506;24.192;2024-02-28T03:53:48;95877.69;;;0.32;89.69
61961;BME280;47923;42.506;24.192;2024-02-28T03:56:13;95907.03;;;0.45;89.50
61961;BME280;47923;42.506;24.192;2024-02-28T03:58:46;95776.69;;;-0.45;89.32
61961;BME280;47923;42.506;24.192;2024-02-28T04:01:11;95799.63;;;-0.25;89.72
61961;BME280;47923;42.506;24.192;2024-02-28T04:03:37;95878.66;;;0.12;89.70
61961;BME280;47923;42.506;24.192;2024-02-28T04:06:02;95794.75;;;-0.42;89.86
61961;BME280;47923;42.506;24.192;2024-02-28T04:08:28;95841.22;;;-0.16;89.95
61961;BME280;47923;42.506;24.192;2024-02-28T04:10:53;95816.47;;;-0.40;90.26
61961;BME280;47923;42.506;24.192;2024-02-28T04:13:19;95913.00;;;0.32;90.39
61961;BME280;47923;42.506;24.192;2024-02-28T04:15:44;95785.75;;;-0.46;90.73
61961;BME280;47923;42.506;24.192;2024-02-28T04:18:11;95886.94;;;0.10;91.12
61961;BME280;47923;42.506;24.192;2024-02-28T04:20:36;95977.69;;;0.51;91.12
61961;BME280;47923;42.506;24.192;2024-02-28T04:23:03;95782.44;;;-0.62;90.59
61961;BME280;47923;42.506;24.192;2024-02-28T04:25:29;95915.69;;;0.32;91.28
61961;BME280;47923;42.506;24.192;2024-02-28T04:27:54;95882.97;;;0.08;91.16
61961;BME280;47923;42.506;24.192;2024-02-28T04:30:20;96043.19;;;0.95;91.79
61961;BME280;47923;42.506;24.192;2024-02-28T04:32:46;96023.84;;;0.90;91.54
61961;BME280;47923;42.506;24.192;2024-02-28T04:35:12;95820.75;;;-0.44;91.74
61961;BME280;47923;42.506;24.192;2024-02-28T04:37:40;95812.88;;;-0.54;91.92
61961;BME280;47923;42.506;24.192;2024-02-28T04:40:06;95349.16;;;-3.51;91.01
61961;BME280;47923;42.506;24.192;2024-02-28T04:42:32;95916.31;;;-0.10;91.36
61961;BME280;47923;42.506;24.192;2024-02-28T04:44:58;95922.34;;;0.01;91.45
61961;BME280;47923;42.506;24.192;2024-02-28T04:47:23;95610.09;;;-1.99;91.35
61961;BME280;47923;42.506;24.192;2024-02-28T04:49:49;96040.22;;;0.73;91.06
61961;BME280;47923;42.506;24.192;2024-02-28T04:52:14;96041.56;;;0.70;91.61
61961;BME280;47923;42.506;24.192;2024-02-28T04:54:40;95827.56;;;-0.62;91.11
61961;BME280;47923;42.506;24.192;2024-02-28T04:57:06;95842.09;;;-0.54;91.32
61961;BME280;47923;42.506;24.192;2024-02-28T04:59:31;95941.44;;;0.08;91.33
61961;BME280;47923;42.506;24.192;2024-02-28T05:01:58;95828.84;;;-0.60;91.15
61961;BME280;47923;42.506;24.192;2024-02-28T05:04:24;95788.38;;;-0.75;91.06
61961;BME280;47923;42.506;24.192;2024-02-28T05:06:49;95921.91;;;0.22;90.76
61961;BME280;47923;42.506;24.192;2024-02-28T05:09:15;95938.06;;;0.26;90.16
61961;BME280;47923;42.506;24.192;2024-02-28T05:11:40;95935.19;;;0.22;89.67
61961;BME280;47923;42.506;24.192;2024-02-28T05:14:06;95806.00;;;-0.56;89.74
61961;BME280;47923;42.506;24.192;2024-02-28T05:16:31;95820.72;;;-0.39;90.38
61961;BME280;47923;42.506;24.192;2024-02-28T05:18:57;96048.28;;;1.16;89.83
61961;BME280;47923;42.506;24.192;2024-02-28T05:21:23;95840.00;;;0.01;89.76
61961;BME280;47923;42.506;24.192;2024-02-28T05:23:48;95684.63;;;-1.03;88.81
61961;BME280;47923;42.506;24.192;2024-02-28T05:26:13;95950.16;;;0.90;88.67
61961;BME280;47923;42.506;24.192;2024-02-28T05:28:39;95954.94;;;1.12;88.06
61961;BME280;47923;42.506;24.192;2024-02-28T05:33:45;95691.75;;;-0.45;86.53
61961;BME280;47923;42.506;24.192;2024-02-28T05:36:11;96073.31;;;2.19;86.82
61961;BME280;47923;42.506;24.192;2024-02-28T05:38:36;95867.22;;;1.02;86.29
61961;BME280;47923;42.506;24.192;2024-02-28T05:41:03;96066.19;;;2.66;84.61
61961;BME280;47923;42.506;24.192;2024-02-28T05:43:28;96010.97;;;2.34;83.41
61961;BME280;47923;42.506;24.192;2024-02-28T05:45:55;95782.25;;;1.10;82.35
61961;BME280;47923;42.506;24.192;2024-02-28T05:48:21;95992.00;;;2.68;82.09
61961;BME280;47923;42.506;24.192;2024-02-28T05:50:46;95856.69;;;2.00;79.96
61961;BME280;47923;42.506;24.192;2024-02-28T05:53:12;95919.84;;;2.59;79.46
61961;BME280;47923;42.506;24.192;2024-02-28T05:55:37;96106.22;;;3.95;78.17
61961;BME280;47923;42.506;24.192;2024-02-28T05:58:03;96094.69;;;4.22;77.97
61961;BME280;47923;42.506;24.192;2024-02-28T06:00:28;96003.50;;;3.73;76.09
61961;BME280;47923;42.506;24.192;2024-02-28T06:02:54;95898.31;;;3.47;74.91
61961;BME280;47923;42.506;24.192;2024-02-28T06:05:19;95974.13;;;4.63;71.46
61961;BME280;47923;42.506;24.192;2024-02-28T06:07:45;95911.81;;;4.40;70.61
61961;BME280;47923;42.506;24.192;2024-02-28T06:10:10;96098.81;;;5.57;70.66
61961;BME280;47923;42.506;24.192;2024-02-28T06:12:36;96103.63;;;5.86;69.89
61961;BME280;47923;42.506;24.192;2024-02-28T06:15:03;95771.66;;;4.50;67.62
61961;BME280;47923;42.506;24.192;2024-02-28T06:17:29;95729.75;;;4.45;64.97
61961;BME280;47923;42.506;24.192;2024-02-28T06:19:54;96100.69;;;7.09;64.78
61961;BME280;47923;42.506;24.192;2024-02-28T06:22:20;95730.88;;;4.61;64.75
61961;BME280;47923;42.506;24.192;2024-02-28T06:24:45;95883.16;;;5.54;64.51
61961;BME280;47923;42.506;24.192;2024-02-28T06:27:11;95710.63;;;4.78;64.54
61961;BME280;47923;42.506;24.192;2024-02-28T06:29:39;95761.78;;;6.09;60.08
61961;BME280;47923;42.506;24.192;2024-02-28T06:32:05;95773.63;;;6.76;57.92
61961;BME280;47923;42.506;24.192;2024-02-28T06:34:31;96098.09;;;9.92;54.85
61961;BME280;47923;42.506;24.192;2024-02-28T06:36:56;95762.34;;;8.61;51.01
61961;BME280;47923;42.506;24.192;2024-02-28T06:39:22;95851.63;;;9.48;50.80
61961;BME280;47923;42.506;24.192;2024-02-28T06:41:48;95762.63;;;9.08;50.02
61961;BME280;47923;42.506;24.192;2024-02-28T06:44:18;95930.72;;;10.76;47.77
61961;BME280;47923;42.506;24.192;2024-02-28T06:46:44;96100.84;;;11.29;48.16
61961;BME280;47923;42.506;24.192;2024-02-28T06:49:09;96126.31;;;11.12;48.70
61961;BME280;47923;42.506;24.192;2024-02-28T06:51:34;96130.56;;;10.85;49.44
61961;BME280;47923;42.506;24.192;2024-02-28T06:54:00;95937.34;;;9.30;49.90
61961;BME280;47923;42.506;24.192;2024-02-28T06:56:25;95916.66;;;9.47;51.13
61961;BME280;47923;42.506;24.192;2024-02-28T06:58:51;95953.53;;;9.55;51.13
61961;BME280;47923;42.506;24.192;2024-02-28T07:01:17;95948.34;;;9.01;53.48
61961;BME280;47923;42.506;24.192;2024-02-28T07:03:43;95799.28;;;7.36;54.64
61961;BME280;47923;42.506;24.192;2024-02-28T07:06:09;95866.44;;;7.78;56.04
61961;BME280;47923;42.506;24.192;2024-02-28T07:08:34;95889.59;;;8.24;55.76
61961;BME280;47923;42.506;24.192;2024-02-28T07:11:01;95991.28;;;9.30;54.34
61961;BME280;47923;42.506;24.192;2024-02-28T07:13:28;96116.50;;;10.79;52.92
61961;BME280;47923;42.506;24.192;2024-02-28T07:15:53;95840.50;;;9.78;51.38
61961;BME280;47923;42.506;24.192;2024-02-28T07:18:23;95879.00;;;10.18;49.38
61961;BME280;47923;42.506;24.192;2024-02-28T07:20:51;96054.44;;;11.74;50.20
61961;BME280;47923;42.506;24.192;2024-02-28T07:23:17;95933.44;;;11.24;48.53
61961;BME280;47923;42.506;24.192;2024-02-28T07:25:43;96026.03;;;12.54;47.63
61961;BME280;47923;42.506;24.192;2024-02-28T07:28:08;95759.59;;;12.73;42.90
61961;BME280;47923;42.506;24.192;2024-02-28T07:30:33;95959.78;;;15.71;39.70
61961;BME280;47923;42.506;24.192;2024-02-28T07:32:59;96056.81;;;17.64;36.67
61961;BME280;47923;42.506;24.192;2024-02-28T07:35:24;96099.06;;;19.44;35.07
61961;BME280;47923;42.506;24.192;2024-02-28T07:37:50;96100.41;;;20.32;33.10
61961;BME280;47923;42.506;24.192;2024-02-28T07:40:15;95917.53;;;19.81;31.82
61961;BME280;47923;42.506;24.192;2024-02-28T07:42:41;96070.56;;;21.98;31.32
61961;BME280;47923;42.506;24.192;2024-02-28T07:45:06;95902.09;;;21.20;30.84
61961;BME280;47923;42.506;24.192;2024-02-28T07:47:34;95943.66;;;21.96;29.83
61961;BME280;47923;42.506;24.192;2024-02-28T07:49:59;96025.13;;;22.76;28.41
61961;BME280;47923;42.506;24.192;2024-02-28T07:52:26;95897.59;;;21.06;30.09
61961;BME280;47923;42.506;24.192;2024-02-28T07:54:51;95774.16;;;21.42;28.97
61961;BME280;47923;42.506;24.192;2024-02-28T07:57:17;96081.22;;;23.46;28.92
61961;BME280;47923;42.506;24.192;2024-02-28T07:59:43;95961.41;;;21.91;29.79
61961;BME280;47923;42.506;24.192;2024-02-28T08:02:09;95933.31;;;22.03;30.52
61961;BME280;47923;42.506;24.192;2024-02-28T08:04:36;95915.41;;;21.21;30.63
61961;BME280;47923;42.506;24.192;2024-02-28T08:07:02;96090.38;;;22.36;31.00
61961;BME280;47923;42.506;24.192;2024-02-28T08:09:28;95883.56;;;21.01;30.98
61961;BME280;47923;42.506;24.192;2024-02-28T08:11:54;95986.50;;;22.60;30.14
61961;BME280;47923;42.506;24.192;2024-02-28T08:14:19;95913.22;;;22.66;29.24
61961;BME280;47923;42.506;24.192;2024-02-28T08:16:45;96062.03;;;23.22;29.49
61961;BME280;47923;42.506;24.192;2024-02-28T08:19:10;95884.31;;;22.18;29.66
61961;BME280;47923;42.506;24.192;2024-02-28T08:21:36;95933.69;;;21.82;30.77
61961;BME280;47923;42.506;24.192;2024-02-28T08:24:01;95961.16;;;22.29;30.50
61961;BME280;47923;42.506;24.192;2024-02-28T08:26:33;96098.16;;;23.08;30.69
61961;BME280;47923;42.506;24.192;2024-02-28T08:28:58;96012.94;;;23.33;29.66
61961;BME280;47923;42.506;24.192;2024-02-28T08:31:24;96084.59;;;24.38;29.48
61961;BME280;47923;42.506;24.192;2024-02-28T08:33:49;95983.00;;;23.52;29.12
61961;BME280;47923;42.506;24.192;2024-02-28T08:36:15;95895.72;;;23.29;28.70
61961;BME280;47923;42.506;24.192;2024-02-28T08:38:40;96079.94;;;24.80;28.50
61961;BME280;47923;42.506;24.192;2024-02-28T08:41:06;95916.44;;;24.57;28.05
61961;BME280;47923;42.506;24.192;2024-02-28T08:43:33;96086.19;;;25.81;27.68
61961;BME280;47923;42.506;24.192;2024-02-28T08:45:59;96076.06;;;26.25;26.25
61961;BME280;47923;42.506;24.192;2024-02-28T08:48:24;95941.88;;;25.06;26.51
61961;BME280;47923;42.506;24.192;2024-02-28T08:50:50;95994.97;;;25.77;26.44
61961;BME280;47923;42.506;24.192;2024-02-28T08:53:15;96074.56;;;25.73;29.25
61961;BME280;47923;42.506;24.192;2024-02-28T08:55:40;95922.31;;;26.21;26.96
61961;BME280;47923;42.506;24.192;2024-02-28T08:58:07;95926.38;;;26.63;24.98
61961;BME280;47923;42.506;24.192;2024-02-28T09:00:32;95914.06;;;26.64;24.84
61961;BME280;47923;42.506;24.192;2024-02-28T09:02:58;96024.59;;;26.15;26.00
61961;BME280;47923;42.506;24.192;2024-02-28T09:05:23;95995.16;;;26.43;25.96
61961;BME280;47923;42.506;24.192;2024-02-28T09:07:49;96024.63;;;25.51;27.02
61961;BME280;47923;42.506;24.192;2024-02-28T09:10:17;96008.41;;;23.43;28.82
61961;BME280;47923;42.506;24.192;2024-02-28T09:12:46;96092.88;;;24.38;28.87
61961;BME280;47923;42.506;24.192;2024-02-28T09:15:12;95903.72;;;24.17;28.18
61961;BME280;47923;42.506;24.192;2024-02-28T09:17:38;95951.63;;;24.69;27.37
61961;BME280;47923;42.506;24.192;2024-02-28T09:20:04;95940.69;;;24.78;27.11
61961;BME280;47923;42.506;24.192;2024-02-28T09:22:31;96013.22;;;25.37;26.43
61961;BME280;47923;42.506;24.192;2024-02-28T09:24:57;95927.81;;;25.26;26.73
61961;BME280;47923;42.506;24.192;2024-02-28T09:27:22;96062.31;;;24.62;28.14
61961;BME280;47923;42.506;24.192;2024-02-28T09:29:49;95895.13;;;24.57;26.70
61961;BME280;47923;42.506;24.192;2024-02-28T09:32:15;96029.06;;;25.87;26.21
61961;BME280;47923;42.506;24.192;2024-02-28T09:34:40;96065.38;;;27.18;25.97
61961;BME280;47923;42.506;24.192;2024-02-28T09:37:06;96023.38;;;26.51;26.06
61961;BME280;47923;42.506;24.192;2024-02-28T09:39:31;95889.28;;;27.01;23.79
61961;BME280;47923;42.506;24.192;2024-02-28T09:41:56;95899.25;;;27.11;23.36
61961;BME280;47923;42.506;24.192;2024-02-28T09:44:23;96048.53;;;27.13;24.34
61961;BME280;47923;42.506;24.192;2024-02-28T09:46:52;95918.69;;;25.89;25.70
61961;BME280;47923;42.506;24.192;2024-02-28T09:49:18;95963.72;;;25.89;25.28
61961;BME280;47923;42.506;24.192;2024-02-28T09:51:44;95902.72;;;25.20;26.33
61961;BME280;47923;42.506;24.192;2024-02-28T09:54:12;95939.75;;;25.61;26.12
61961;BME280;47923;42.506;24.192;2024-02-28T09:56:37;95999.91;;;26.08;25.92
61961;BME280;47923;42.506;24.192;2024-02-28T09:59:03;95903.81;;;25.96;25.83
61961;BME280;47923;42.506;24.192;2024-02-28T10:01:29;95986.28;;;27.45;25.93
61961;BME280;47923;42.506;24.192;2024-02-28T10:03:55;96036.41;;;27.81;24.45
61961;BME280;47923;42.506;24.192;2024-02-28T10:06:21;96019.75;;;27.19;25.88
61961;BME280;47923;42.506;24.192;2024-02-28T10:08:48;95900.31;;;25.70;25.26
61961;BME280;47923;42.506;24.192;2024-02-28T10:11:20;95806.06;;;24.40;26.59
61961;BME280;47923;42.506;24.192;2024-02-28T10:13:47;96018.66;;;27.17;25.50
61961;BME280;47923;42.506;24.192;2024-02-28T10:16:13;95953.63;;;26.65;25.26
61961;BME280;47923;42.506;24.192;2024-02-28T10:18:42;96018.47;;;26.67;25.85
61961;BME280;47923;42.506;24.192;2024-02-28T10:21:08;95962.56;;;26.12;26.36
61961;BME280;47923;42.506;24.192;2024-02-28T10:23:33;95878.41;;;24.35;28.76
61961;BME280;47923;42.506;24.192;2024-02-28T10:26:00;95949.50;;;25.40;27.98
61961;BME280;47923;42.506;24.192;2024-02-28T10:28:26;95764.13;;;23.62;28.42
61961;BME280;47923;42.506;24.192;2024-02-28T10:30:53;95817.06;;;24.27;28.37
61961;BME280;47923;42.506;24.192;2024-02-28T10:33:19;95833.69;;;24.11;28.47
61961;BME280;47923;42.506;24.192;2024-02-28T10:35:45;95892.50;;;24.79;28.22
61961;BME280;47923;42.506;24.192;2024-02-28T10:38:14;95988.88;;;25.82;27.94
61961;BME280;47923;42.506;24.192;2024-02-28T10:40:40;95842.47;;;23.93;29.18
61961;BME280;47923;42.506;24.192;2024-02-28T10:43:10;95911.06;;;24.78;28.85
61961;BME280;47923;42.506;24.192;2024-02-28T10:45:37;95937.28;;;25.63;27.66
61961;BME280;47923;42.506;24.192;2024-02-28T10:48:05;95988.09;;;26.29;27.82
61961;BME280;47923;42.506;24.192;2024-02-28T10:50:32;95859.72;;;25.19;27.43
61961;BME280;47923;42.506;24.192;2024-02-28T10:53:02;95739.78;;;23.73;28.85
61961;BME280;47923;42.506;24.192;2024-02-28T10:55:39;95811.84;;;23.75;29.22
61961;BME280;47923;42.506;24.192;2024-02-28T10:58:09;95891.75;;;24.08;29.01
61961;BME280;47923;42.506;24.192;2024-02-28T11:00:42;95827.22;;;23.27;29.45
61961;BME280;47923;42.506;24.192;2024-02-28T11:03:13;95795.72;;;23.57;29.92
61961;BME280;47923;42.506;24.192;2024-02-28T11:05:42;95983.66;;;24.37;29.63
61961;BME280;47923;42.506;24.192;2024-02-28T11:08:20;95923.22;;;22.40;32.24
61961;BME280;47923;42.506;24.192;2024-02-28T11:10:46;95987.41;;;21.87;33.06
61961;BME280;47923;42.506;24.192;2024-02-28T11:13:23;95847.97;;;21.64;33.46
61961;BME280;47923;42.506;24.192;2024-02-28T11:15:48;95731.94;;;20.62;33.54
61961;BME280;47923;42.506;24.192;2024-02-28T11:18:14;95965.13;;;21.81;34.37
61961;BME280;47923;42.506;24.192;2024-02-28T11:20:39;95805.66;;;20.64;34.45
61961;BME280;47923;42.506;24.192;2024-02-28T11:23:08;95751.31;;;20.25;34.75
61961;BME280;47923;42.506;24.192;2024-02-28T11:25:34;95739.53;;;19.97;35.24
61961;BME280;47923;42.506;24.192;2024-02-28T11:28:00;95785.19;;;20.68;34.36
61961;BME280;47923;42.506;24.192;2024-02-28T11:30:26;95799.31;;;20.09;35.72
61961;BME280;47923;42.506;24.192;2024-02-28T11:32:54;95808.66;;;20.46;34.71
61961;BME280;47923;42.506;24.192;2024-02-28T11:35:20;95883.69;;;20.63;35.46
61961;BME280;47923;42.506;24.192;2024-02-28T11:37:46;95616.81;;;18.83;35.51
61961;BME280;47923;42.506;24.192;2024-02-28T11:40:13;95882.28;;;20.78;35.39
61961;BME280;47923;42.506;24.192;2024-02-28T11:42:38;95739.94;;;19.96;35.22
61961;BME280;47923;42.506;24.192;2024-02-28T11:45:05;95978.56;;;21.25;35.36
61961;BME280;47923;42.506;24.192;2024-02-28T11:47:34;95924.97;;;20.18;36.71
61961;BME280;47923;42.506;24.192;2024-02-28T11:50:04;95914.97;;;20.69;36.51
61961;BME280;47923;42.506;24.192;2024-02-28T11:52:33;95944.72;;;20.06;37.38
61961;BME280;47923;42.506;24.192;2024-02-28T11:54:59;95827.94;;;19.33;37.51
61961;BME280;47923;42.506;24.192;2024-02-28T11:57:25;95756.13;;;18.70;37.63
61961;BME280;47923;42.506;24.192;2024-02-28T11:59:51;95746.38;;;18.62;38.14
61961;BME280;47923;42.506;24.192;2024-02-28T12:02:17;95750.94;;;18.79;38.02
61961;BME280;47923;42.506;24.192;2024-02-28T12:04:44;95925.00;;;19.32;37.93
61961;BME280;47923;42.506;24.192;2024-02-28T12:07:10;95795.72;;;17.78;38.83
61961;BME280;47923;42.506;24.192;2024-02-28T12:09:36;95627.09;;;16.73;39.23
61961;BME280;47923;42.506;24.192;2024-02-28T12:12:02;95677.38;;;16.54;39.91
61961;BME280;47923;42.506;24.192;2024-02-28T12:14:35;95804.41;;;17.33;40.26
61961;BME280;47923;42.506;24.192;2024-02-28T12:17:02;95734.84;;;17.63;39.43
61961;BME280;47923;42.506;24.192;2024-02-28T12:19:28;95815.06;;;18.12;39.48
61961;BME280;47923;42.506;24.192;2024-02-28T12:21:54;95804.06;;;18.30;38.50
61961;BME280;47923;42.506;24.192;2024-02-28T12:24:20;95803.69;;;18.24;38.73
61961;BME280;47923;42.506;24.192;2024-02-28T12:26:46;95697.38;;;17.60;38.72
61961;BME280;47923;42.506;24.192;2024-02-28T12:29:12;95624.66;;;17.03;39.79
61961;BME280;47923;42.506;24.192;2024-02-28T12:31:37;95750.91;;;17.39;40.43
61961;BME280;47923;42.506;24.192;2024-02-28T12:34:02;95668.03;;;16.76;41.30
61961;BME280;47923;42.506;24.192;2024-02-28T12:36:31;95885.22;;;18.43;40.90
61961;BME280;47923;42.506;24.192;2024-02-28T12:38:58;95814.44;;;17.76;40.79
61961;BME280;47923;42.506;24.192;2024-02-28T12:41:25;95870.97;;;18.07;41.34
61961;BME280;47923;42.506;24.192;2024-02-28T12:43:51;95882.28;;;18.09;41.64
61961;BME280;47923;42.506;24.192;2024-02-28T12:46:17;95710.88;;;16.37;41.43
61961;BME280;47923;42.506;24.192;2024-02-28T12:48:43;95898.00;;;17.09;42.46
61961;BME280;47923;42.506;24.192;2024-02-28T12:51:20;95883.94;;;17.25;42.10